Time;durP1;ratioP1;P1;durP2;ratioP2;P2;SDS_P1;SDS_P2;PMS_P1;PMS_P2;Temp;Humidity;BMP_temperature;BMP_pressure;BME280_temperature;BME280_humidity;BME280_pressure;Samples;Min_cycle;Max_cycle;Signal;HPM_P1;HPM_P2
2022/03/01 00:00:05;;;;;;;5.07;4.57;;;0.80;99.90;;;;;;487091;244;27912;-75
2022/03/01 00:02:06;;;;;;;5.03;4.22;;;0.80;99.90;;;;;;487075;244;27470;-75
2022/03/01 00:04:07;;;;;;;8.23;4.57;;;0.70;99.90;;;;;;487072;244;27406;-75
2022/03/01 00:06:09;;;;;;;4.60;4.20;;;0.70;99.90;;;;;;487089;243;27521;-75
2022/03/01 00:08:10;;;;;;;4.82;4.15;;;0.70;99.90;;;;;;487058;244;27402;-76
2022/03/01 00:10:11;;;;;;;5.03;4.57;;;0.60;99.90;;;;;;487011;244;27410;-76
2022/03/01 00:12:12;;;;;;;5.32;4.80;;;0.60;99.90;;;;;;487037;244;27419;-75
2022/03/01 00:14:14;;;;;;;5.18;4.68;;;0.60;99.90;;;;;;487048;244;27513;-75
2022/03/01 00:16:16;;;;;;;5.25;4.72;;;0.50;99.90;;;;;;487077;244;27584;-76
2022/03/01 00:18:16;;;;;;;4.78;4.15;;;0.50;99.90;;;;;;487057;244;27853;-76
2022/03/01 00:20:17;;;;;;;5.07;3.90;;;0.40;99.90;;;;;;487638;244;27972;-75
2022/03/01 00:22:19;;;;;;;5.75;5.20;;;0.40;99.90;;;;;;484767;244;27872;-76
2022/03/01 00:24:20;;;;;;;5.32;4.87;;;0.40;99.90;;;;;;487063;244;27975;-75
2022/03/01 00:26:21;;;;;;;4.40;4.10;;;0.40;99.90;;;;;;487100;244;27489;-76
2022/03/01 00:28:22;;;;;;;4.68;4.28;;;0.40;99.90;;;;;;487070;244;27505;-75
2022/03/01 00:30:24;;;;;;;5.03;4.53;;;0.30;99.90;;;;;;487074;244;27438;-75
2022/03/01 00:32:25;;;;;;;5.10;4.70;;;0.40;99.90;;;;;;487057;244;27457;-75
2022/03/01 00:34:26;;;;;;;4.22;3.83;;;0.40;99.90;;;;;;487056;244;27418;-75
2022/03/01 00:36:28;;;;;;;5.60;4.60;;;0.40;99.90;;;;;;487094;244;27446;-76
2022/03/01 00:38:29;;;;;;;5.10;4.60;;;0.40;99.90;;;;;;487102;244;27380;-75
2022/03/01 00:40:30;;;;;;;4.65;4.22;;;0.40;99.90;;;;;;487066;244;27414;-76
2022/03/01 00:42:31;;;;;;;4.97;4.57;;;0.40;99.90;;;;;;487075;244;27450;-76
2022/03/01 00:44:32;;;;;;;5.97;4.30;;;0.30;99.90;;;;;;487086;244;27515;-76
2022/03/01 00:46:34;;;;;;;5.15;4.65;;;0.20;99.90;;;;;;487667;241;28023;-75
2022/03/01 00:48:35;;;;;;;4.75;4.30;;;0.10;99.90;;;;;;484794;245;27865;-75
2022/03/01 00:50:36;;;;;;;5.35;4.95;;;0.00;99.90;;;;;;487077;244;27894;-75
2022/03/01 00:52:38;;;;;;;6.30;4.85;;;0.00;99.90;;;;;;487017;244;27841;-75
2022/03/01 00:54:39;;;;;;;4.78;4.30;;;-0.10;99.90;;;;;;487063;244;27413;-76
2022/03/01 00:56:40;;;;;;;8.07;5.00;;;-0.10;99.90;;;;;;487101;244;27418;-76
2022/03/01 00:58:41;;;;;;;6.90;5.00;;;-0.10;99.90;;;;;;487656;244;27481;-75
2022/03/01 01:00:43;;;;;;;4.80;4.40;;;-0.10;99.90;;;;;;484787;244;27453;-75
2022/03/01 01:02:44;;;;;;;5.70;4.60;;;-0.10;99.90;;;;;;487058;244;27366;-76
2022/03/01 01:04:45;;;;;;;5.20;4.70;;;-0.10;99.90;;;;;;487062;244;27492;-75
2022/03/01 01:06:46;;;;;;;5.40;4.75;;;-0.10;99.90;;;;;;487073;244;27395;-75
2022/03/01 01:08:48;;;;;;;5.62;5.12;;;-0.10;99.90;;;;;;487075;244;27894;-75
2022/03/01 01:10:49;;;;;;;5.37;4.90;;;-0.20;99.90;;;;;;487643;244;28090;-76
2022/03/01 01:12:50;;;;;;;5.37;4.85;;;-0.20;99.90;;;;;;478116;249;28124;-76
2022/03/01 01:14:51;;;;;;;5.90;5.30;;;-0.30;99.90;;;;;;496514;239;27506;-76
2022/03/01 01:16:53;;;;;;;5.62;4.65;;;-0.30;99.90;;;;;;487063;244;27612;-75
2022/03/01 01:18:55;;;;;;;5.53;5.12;;;-0.30;99.90;;;;;;487073;244;27390;-75
2022/03/01 01:20:55;;;;;;;5.75;4.85;;;-0.30;99.90;;;;;;487010;244;27405;-76
2022/03/01 01:22:56;;;;;;;6.53;4.87;;;-0.30;99.90;;;;;;487047;244;27471;-74
2022/03/01 01:24:58;;;;;;;4.68;4.28;;;-0.30;99.90;;;;;;487088;244;27406;-75
2022/03/01 01:26:59;;;;;;;5.37;4.87;;;-0.30;99.90;;;;;;487102;244;27454;-76
2022/03/01 01:29:00;;;;;;;5.78;4.65;;;-0.30;99.90;;;;;;487074;244;27849;-75
2022/03/01 01:31:01;;;;;;;9.65;5.65;;;-0.30;99.90;;;;;;487104;244;27987;-76
2022/03/01 01:33:03;;;;;;;6.00;5.20;;;-0.40;99.90;;;;;;487061;244;27896;-75
2022/03/01 01:35:04;;;;;;;7.65;6.60;;;-0.40;99.90;;;;;;487057;244;27512;-75
2022/03/01 01:37:05;;;;;;;7.05;5.47;;;-0.40;99.90;;;;;;487053;244;27458;-75
2022/03/01 01:39:06;;;;;;;6.75;6.05;;;-0.30;99.90;;;;;;487626;244;27505;-75
2022/03/01 01:41:08;;;;;;;8.75;6.05;;;-0.20;99.90;;;;;;484799;245;27422;-76
2022/03/01 01:43:09;;;;;;;7.55;5.80;;;0.00;99.90;;;;;;487082;241;27463;-75
2022/03/01 01:45:10;;;;;;;6.93;5.97;;;0.20;99.90;;;;;;487084;244;27398;-75
2022/03/01 01:47:11;;;;;;;9.80;7.15;;;0.50;99.90;;;;;;487079;244;27371;-74
2022/03/01 01:49:13;;;;;;;10.35;7.15;;;0.60;99.90;;;;;;487097;244;27439;-76
2022/03/01 01:51:14;;;;;;;11.20;7.45;;;0.70;99.90;;;;;;487065;244;27991;-75
2022/03/01 01:53:15;;;;;;;8.57;7.30;;;0.80;99.90;;;;;;487055;244;27825;-76
2022/03/01 01:55:16;;;;;;;15.48;7.40;;;0.90;99.90;;;;;;487057;244;27892;-75
2022/03/01 01:57:18;;;;;;;8.95;7.43;;;0.90;99.90;;;;;;487081;244;27387;-75
2022/03/01 01:59:19;;;;;;;10.63;7.62;;;0.90;99.90;;;;;;487061;244;27367;-75
2022/03/01 02:01:20;;;;;;;11.35;8.27;;;0.90;99.90;;;;;;487640;244;27544;-76
2022/03/01 02:03:21;;;;;;;11.23;7.62;;;0.90;99.90;;;;;;478121;249;27480;-76
2022/03/01 02:05:23;;;;;;;12.60;8.38;;;0.90;99.90;;;;;;496554;239;27516;-75
2022/03/01 02:07:24;;;;;;;11.73;8.57;;;1.00;99.90;;;;;;487077;244;27457;-75
2022/03/01 02:09:25;;;;;;;9.40;7.65;;;1.00;99.90;;;;;;487073;244;27392;-75
2022/03/01 02:11:27;;;;;;;12.48;8.25;;;1.00;99.90;;;;;;487079;244;27948;-76
2022/03/01 02:13:28;;;;;;;11.18;7.57;;;0.90;99.90;;;;;;487067;244;27914;-76
2022/03/01 02:15:29;;;;;;;10.25;7.62;;;0.80;99.90;;;;;;487058;244;27988;-75
2022/03/01 02:17:30;;;;;;;10.90;7.95;;;0.80;99.90;;;;;;487076;244;27394;-75
2022/03/01 02:19:31;;;;;;;9.55;6.93;;;0.90;99.90;;;;;;487095;244;27384;-75
2022/03/01 02:21:33;;;;;;;7.55;6.75;;;0.90;99.90;;;;;;487075;244;27515;-76
2022/03/01 02:23:34;;;;;;;12.05;7.05;;;0.90;99.90;;;;;;487087;244;27467;-75
2022/03/01 02:25:35;;;;;;;10.73;7.90;;;0.90;99.90;;;;;;487688;244;27527;-76
2022/03/01 02:27:36;;;;;;;10.65;8.40;;;1.00;99.90;;;;;;484829;245;27469;-75
2022/03/01 02:29:40;;;;;;;11.57;8.40;;;1.10;99.90;;;;;;486731;244;27422;-76
2022/03/01 02:31:41;;;;;;;10.90;7.40;;;1.00;99.90;;;;;;487081;244;27410;-75
2022/03/01 02:33:42;;;;;;;11.63;7.45;;;1.00;99.90;;;;;;487082;244;27473;-76
2022/03/01 02:37:54;;;;;;;13.45;8.10;;;0.90;99.90;;;;;;475899;246;27501;-75
2022/03/01 02:39:55;;;;;;;9.80;7.80;;;1.00;99.90;;;;;;480480;247;27543;-75
2022/03/01 02:41:56;;;;;;;9.25;7.20;;;0.90;99.90;;;;;;464205;256;27541;-75
2022/03/01 02:43:58;;;;;;;12.40;8.10;;;0.90;99.90;;;;;;480452;247;27633;-75
2022/03/01 02:45:59;;;;;;;11.35;7.82;;;0.80;99.90;;;;;;466855;236;27647;-75
2022/03/01 02:48:00;;;;;;;11.63;8.07;;;0.80;99.90;;;;;;462892;257;27604;-75
2022/03/01 02:50:01;;;;;;;15.30;8.68;;;0.70;99.90;;;;;;471839;252;27554;-75
2022/03/01 02:52:03;;;;;;;15.50;8.10;;;0.70;99.90;;;;;;471799;251;27491;-75
2022/03/01 02:54:04;;;;;;;13.43;8.10;;;0.60;99.90;;;;;;470381;252;27934;-74
2022/03/01 02:56:05;;;;;;;14.50;9.43;;;0.70;99.90;;;;;;470385;252;28847;-74
2022/03/01 02:58:06;;;;;;;12.63;8.63;;;0.70;99.90;;;;;;470401;253;27992;-74
2022/03/01 03:00:08;;;;;;;10.05;8.30;;;0.80;99.90;;;;;;470414;252;27455;-75
2022/03/01 03:02:12;;;;;;;12.30;7.90;;;0.70;99.90;;;;;;470401;253;27442;-75
2022/03/01 03:04:10;;;;;;;10.65;7.45;;;0.70;99.90;;;;;;470210;253;27561;-74
2022/03/01 03:06:11;;;;;;;10.98;7.60;;;0.60;99.90;;;;;;470379;252;27499;-75
2022/03/01 03:08:13;;;;;;;13.15;8.10;;;0.60;99.90;;;;;;470392;253;27439;-75
2022/03/01 03:10:14;;;;;;;9.68;7.60;;;0.50;99.90;;;;;;470389;253;27547;-75
2022/03/01 03:12:15;;;;;;;10.70;7.57;;;0.50;99.90;;;;;;470414;253;27426;-74
2022/03/01 03:14:16;;;;;;;12.27;8.07;;;0.50;99.90;;;;;;470409;253;27949;-75
2022/03/01 03:16:18;;;;;;;11.88;7.82;;;0.50;99.90;;;;;;470409;252;28660;-75
2022/03/01 03:18:19;;;;;;;11.15;7.75;;;0.40;99.90;;;;;;470412;253;27891;-75
2022/03/01 03:20:20;;;;;;;10.25;7.93;;;0.50;99.90;;;;;;470401;252;28153;-76
2022/03/01 03:22:21;;;;;;;12.37;7.82;;;0.50;99.90;;;;;;470414;253;27490;-75
2022/03/01 03:24:23;;;;;;;10.35;7.47;;;0.40;99.90;;;;;;470411;253;27465;-75
2022/03/01 03:26:24;;;;;;;11.65;7.35;;;0.40;99.90;;;;;;470419;252;27431;-75
2022/03/01 03:28:25;;;;;;;10.75;7.65;;;0.40;99.90;;;;;;470407;252;27435;-74
2022/03/01 03:30:26;;;;;;;10.15;7.75;;;0.30;99.90;;;;;;470436;252;27463;-75
2022/03/01 03:32:28;;;;;;;12.07;7.53;;;0.30;99.90;;;;;;470403;252;27874;-75
2022/03/01 03:34:29;;;;;;;11.80;7.82;;;0.30;99.90;;;;;;470392;253;28025;-75
2022/03/01 03:36:30;;;;;;;11.75;8.05;;;0.30;99.90;;;;;;470397;251;27509;-74
2022/03/01 03:38:31;;;;;;;12.43;7.50;;;0.20;99.90;;;;;;470396;252;27530;-75
2022/03/01 03:40:33;;;;;;;11.52;7.90;;;0.20;99.90;;;;;;470426;252;27477;-75
2022/03/01 03:42:34;;;;;;;11.30;7.50;;;0.30;99.90;;;;;;470429;253;27435;-75
2022/03/01 03:44:35;;;;;;;10.00;6.97;;;0.20;99.90;;;;;;470389;252;27479;-75
2022/03/01 03:46:36;;;;;;;8.35;6.87;;;0.20;99.90;;;;;;470400;253;27426;-74
2022/03/01 03:48:38;;;;;;;8.95;6.37;;;0.10;99.90;;;;;;470423;248;27457;-75
2022/03/01 03:50:39;;;;;;;10.18;6.97;;;0.10;99.90;;;;;;470410;248;27461;-76
2022/03/01 03:52:40;;;;;;;10.55;7.55;;;0.00;99.90;;;;;;470409;253;27477;-75
2022/03/01 03:54:41;;;;;;;9.73;7.28;;;-0.10;99.90;;;;;;470394;252;27936;-75
2022/03/01 03:56:43;;;;;;;10.82;6.53;;;-0.10;99.90;;;;;;470410;252;27916;-74
2022/03/01 03:58:44;;;;;;;10.00;6.25;;;-0.10;99.90;;;;;;470411;252;27525;-74
2022/03/01 04:00:46;;;;;;;9.73;6.55;;;-0.20;99.90;;;;;;470455;253;27465;-76
2022/03/01 04:02:46;;;;;;;9.57;7.07;;;-0.20;99.90;;;;;;470398;252;27430;-75
2022/03/01 04:04:48;;;;;;;8.05;6.15;;;-0.20;99.90;;;;;;470406;249;27477;-76
2022/03/01 04:06:49;;;;;;;9.23;6.12;;;-0.20;99.90;;;;;;470430;252;27536;-74
2022/03/01 04:08:50;;;;;;;9.95;7.20;;;-0.30;99.90;;;;;;470431;252;27573;-75
2022/03/01 04:10:52;;;;;;;8.45;6.80;;;-0.30;99.90;;;;;;470430;253;27563;-74
2022/03/01 04:12:53;;;;;;;9.57;7.62;;;-0.30;99.90;;;;;;470414;252;27982;-74
2022/03/01 04:14:54;;;;;;;10.48;7.15;;;-0.30;99.90;;;;;;470401;252;27954;-75
2022/03/01 04:16:55;;;;;;;10.75;7.68;;;-0.20;99.90;;;;;;470363;253;27431;-75
2022/03/01 04:18:57;;;;;;;10.40;7.78;;;-0.20;99.90;;;;;;470393;252;27458;-75
2022/03/01 04:20:58;;;;;;;10.50;7.70;;;-0.20;99.90;;;;;;470413;252;27474;-76
2022/03/01 04:22:59;;;;;;;8.57;6.70;;;-0.30;99.90;;;;;;470433;253;27415;-75
2022/03/01 04:25:00;;;;;;;11.48;7.03;;;-0.30;99.90;;;;;;470423;253;27474;-75
2022/03/01 04:27:02;;;;;;;7.72;6.53;;;-0.40;99.90;;;;;;470389;253;27545;-75
2022/03/01 04:29:03;;;;;;;7.50;5.50;;;-0.50;99.90;;;;;;470360;252;28012;-75
2022/03/01 04:31:04;;;;;;;8.68;6.05;;;-0.60;99.90;;;;;;470414;252;27965;-74
2022/03/01 04:33:05;;;;;;;7.95;6.18;;;-0.60;99.90;;;;;;470433;253;29152;-75
2022/03/01 04:35:08;;;;;;;10.52;6.18;;;-0.70;99.90;;;;;;470443;252;27463;-75
2022/03/01 04:37:08;;;;;;;6.82;5.50;;;-0.70;99.90;;;;;;470392;252;27442;-74
2022/03/01 04:39:09;;;;;;;8.98;6.07;;;-0.80;99.90;;;;;;470417;252;27461;-75
2022/03/01 04:41:10;;;;;;;9.63;6.97;;;-0.80;99.90;;;;;;470434;252;27890;-75
2022/03/01 04:43:12;;;;;;;11.85;7.70;;;-0.80;99.90;;;;;;470398;253;27810;-74
2022/03/01 04:45:13;;;;;;;9.55;7.12;;;-0.80;99.90;;;;;;470409;252;27552;-75
2022/03/01 04:47:15;;;;;;;11.15;6.97;;;-0.80;99.90;;;;;;470395;252;27411;-75
2022/03/01 04:49:15;;;;;;;9.98;6.70;;;-0.80;99.90;;;;;;470397;252;28042;-75
2022/03/01 04:51:21;;;;;;;10.38;7.43;;;-0.80;99.90;;;;;;470427;252;28013;-74
2022/03/01 04:53:18;;;;;;;8.75;5.70;;;-0.90;99.90;;;;;;470116;253;27518;-75
2022/03/01 04:55:19;;;;;;;11.70;6.57;;;-0.90;99.90;;;;;;470401;253;27538;-75
2022/03/01 04:57:20;;;;;;;8.57;6.40;;;-1.00;99.90;;;;;;470398;252;27540;-75
2022/03/01 04:59:22;;;;;;;8.15;6.45;;;-1.00;99.90;;;;;;470394;253;27462;-74
2022/03/01 05:01:23;;;;;;;8.18;6.30;;;-1.00;99.90;;;;;;470434;252;27985;-75
2022/03/01 05:03:24;;;;;;;6.57;5.93;;;-1.00;99.90;;;;;;470422;252;27417;-74
2022/03/01 05:05:25;;;;;;;7.70;6.40;;;-1.00;99.90;;;;;;470388;252;27513;-74
2022/03/01 05:07:27;;;;;;;6.85;5.47;;;-1.00;99.90;;;;;;470415;252;27874;-75
2022/03/01 05:09:28;;;;;;;8.15;5.93;;;-1.00;99.90;;;;;;470352;253;29072;-75
2022/03/01 05:11:29;;;;;;;14.63;7.70;;;-1.00;99.90;;;;;;470398;252;27475;-75
2022/03/01 05:13:30;;;;;;;12.30;7.40;;;-0.90;99.90;;;;;;470409;252;27497;-75
2022/03/01 05:15:32;;;;;;;11.93;7.22;;;-0.90;99.90;;;;;;470419;249;27562;-75
2022/03/01 05:17:33;;;;;;;12.25;6.55;;;-0.90;99.90;;;;;;470396;252;27510;-74
2022/03/01 05:19:34;;;;;;;11.00;7.22;;;-0.90;99.90;;;;;;470355;252;27481;-74
2022/03/01 05:21:35;;;;;;;9.55;6.57;;;-1.00;99.90;;;;;;470407;253;27471;-75
2022/03/01 05:23:37;;;;;;;7.37;6.40;;;-1.20;99.90;;;;;;470424;248;27989;-74
2022/03/01 05:25:38;;;;;;;9.05;6.50;;;-1.30;99.90;;;;;;470429;252;27987;-75
2022/03/01 05:27:39;;;;;;;10.88;6.47;;;-1.40;99.90;;;;;;470418;252;29123;-75
2022/03/01 05:29:40;;;;;;;9.35;6.40;;;-1.50;99.90;;;;;;470420;252;27497;-75
2022/03/01 05:31:42;;;;;;;8.20;6.15;;;-1.60;99.90;;;;;;470407;248;27529;-74
2022/03/01 05:33:43;;;;;;;7.90;6.85;;;-1.60;99.90;;;;;;470401;252;27527;-74
2022/03/01 05:35:44;;;;;;;7.50;6.68;;;-1.70;99.90;;;;;;470425;252;27564;-74
2022/03/01 05:37:47;;;;;;;7.12;6.43;;;-1.80;99.90;;;;;;470367;253;27419;-75
2022/03/01 05:39:47;;;;;;;7.72;6.15;;;-1.80;99.90;;;;;;470361;252;27543;-75
2022/03/01 05:41:49;;;;;;;6.03;5.40;;;-1.70;99.90;;;;;;470446;252;27453;-74
2022/03/01 05:43:49;;;;;;;6.72;6.12;;;-1.70;99.90;;;;;;470432;253;28071;-75
2022/03/01 05:45:50;;;;;;;8.20;7.03;;;-1.60;99.90;;;;;;470443;252;28008;-75
2022/03/01 05:47:52;;;;;;;7.80;5.95;;;-1.50;99.90;;;;;;470424;252;27498;-75
2022/03/01 05:49:53;;;;;;;6.93;6.15;;;-1.50;99.90;;;;;;470423;253;27458;-74
2022/03/01 05:51:54;;;;;;;7.97;6.10;;;-1.50;99.90;;;;;;470448;252;27546;-75
2022/03/01 05:53:55;;;;;;;10.98;7.55;;;-1.50;99.90;;;;;;470448;252;27442;-74
2022/03/01 05:55:57;;;;;;;10.18;7.55;;;-1.40;99.90;;;;;;470471;252;27482;-76
2022/03/01 05:57:58;;;;;;;10.23;7.75;;;-1.40;99.90;;;;;;470450;252;27461;-75
2022/03/01 05:59:59;;;;;;;9.60;7.85;;;-1.30;99.90;;;;;;470429;253;27465;-75
2022/03/01 06:02:01;;;;;;;11.63;9.43;;;-1.30;99.90;;;;;;470271;253;28035;-75
2022/03/01 06:04:02;;;;;;;11.00;9.13;;;-1.30;99.90;;;;;;470422;253;29054;-75
2022/03/01 06:06:03;;;;;;;12.82;9.75;;;-1.30;99.90;;;;;;470433;252;27463;-75
2022/03/01 06:08:04;;;;;;;13.95;9.95;;;-1.30;99.90;;;;;;470413;253;27426;-74
2022/03/01 06:10:06;;;;;;;12.13;8.65;;;-1.30;99.90;;;;;;470425;252;27549;-75
2022/03/01 06:12:07;;;;;;;13.43;8.90;;;-1.30;99.90;;;;;;470430;252;27455;-75
2022/03/01 06:14:08;;;;;;;13.43;9.50;;;-1.30;99.90;;;;;;470419;253;27431;-74
2022/03/01 06:16:09;;;;;;;15.15;9.05;;;-1.30;99.90;;;;;;470368;249;27466;-75
2022/03/01 06:18:11;;;;;;;14.15;9.57;;;-1.30;99.90;;;;;;470375;253;27957;-75
2022/03/01 06:20:12;;;;;;;13.48;9.40;;;-1.30;99.90;;;;;;470378;253;29077;-75
2022/03/01 06:22:13;;;;;;;17.87;11.38;;;-1.30;99.90;;;;;;470393;252;27759;-74
2022/03/01 06:24:14;;;;;;;17.02;11.35;;;-1.30;99.90;;;;;;470424;253;27424;-75
2022/03/01 06:26:16;;;;;;;18.85;11.68;;;-1.20;99.90;;;;;;470408;253;27454;-74
2022/03/01 06:28:17;;;;;;;17.90;11.12;;;-1.20;99.90;;;;;;470393;253;27426;-75
2022/03/01 06:30:18;;;;;;;17.70;11.10;;;-1.20;99.90;;;;;;470390;253;27925;-76
2022/03/01 06:32:19;;;;;;;18.87;11.93;;;-1.20;99.90;;;;;;470389;253;28133;-74
2022/03/01 06:34:21;;;;;;;20.10;11.23;;;-1.20;99.90;;;;;;470406;253;27453;-75
2022/03/01 06:36:22;;;;;;;21.00;12.00;;;-1.20;99.90;;;;;;470422;253;27471;-75
2022/03/01 06:38:23;;;;;;;18.08;11.50;;;-1.10;99.90;;;;;;470419;253;27426;-75
2022/03/01 06:40:24;;;;;;;18.80;11.32;;;-1.20;99.90;;;;;;470326;253;27469;-75
2022/03/01 06:42:27;;;;;;;20.67;12.15;;;-1.10;99.90;;;;;;470361;253;27467;-75
2022/03/01 06:44:27;;;;;;;16.15;10.50;;;-1.10;99.90;;;;;;470359;253;27998;-75
2022/03/01 06:46:28;;;;;;;20.80;10.65;;;-1.10;99.90;;;;;;470380;253;27554;-75
2022/03/01 06:48:29;;;;;;;17.45;10.90;;;-1.00;99.90;;;;;;470354;253;27427;-74
2022/03/01 06:50:31;;;;;;;17.62;10.55;;;-1.00;99.90;;;;;;470389;253;27466;-75
2022/03/01 06:52:34;;;;;;;15.05;9.68;;;-1.00;99.90;;;;;;470356;253;27462;-75
2022/03/01 06:54:33;;;;;;;18.35;10.05;;;-1.00;99.90;;;;;;470234;253;27412;-75
2022/03/01 06:56:35;;;;;;;21.45;11.32;;;-0.90;99.90;;;;;;470361;253;27930;-75
2022/03/01 06:58:36;;;;;;;18.20;12.07;;;-0.90;99.90;;;;;;470380;253;28766;-75
2022/03/01 07:00:37;;;;;;;17.75;11.40;;;-0.90;99.90;;;;;;470364;253;27435;-75
2022/03/01 07:02:38;;;;;;;20.88;11.45;;;-0.80;99.90;;;;;;470395;253;27458;-74
2022/03/01 07:04:40;;;;;;;21.48;10.82;;;-0.80;99.90;;;;;;470373;253;27433;-75
2022/03/01 07:06:41;;;;;;;14.75;10.45;;;-0.80;99.90;;;;;;470381;253;27558;-74
2022/03/01 07:08:44;;;;;;;16.52;10.07;;;-0.80;99.90;;;;;;470403;253;29010;-74
2022/03/01 07:10:43;;;;;;;17.85;10.18;;;-0.80;99.90;;;;;;470347;253;27857;-74
2022/03/01 07:12:45;;;;;;;15.85;10.27;;;-0.70;99.90;;;;;;470411;253;27531;-75
2022/03/01 07:14:46;;;;;;;14.55;9.18;;;-0.70;99.90;;;;;;470415;253;27422;-75
2022/03/01 07:16:47;;;;;;;15.25;9.77;;;-0.70;99.90;;;;;;470411;252;27541;-74
2022/03/01 07:18:48;;;;;;;15.32;10.00;;;-0.70;99.90;;;;;;470478;252;27480;-75
2022/03/01 07:20:50;;;;;;;16.73;10.43;;;-0.60;99.90;;;;;;470428;253;27522;-75
2022/03/01 07:22:51;;;;;;;16.33;10.65;;;-0.60;99.90;;;;;;470417;252;28055;-76
2022/03/01 07:24:52;;;;;;;20.10;10.93;;;-0.50;99.90;;;;;;470390;253;28989;-75
2022/03/01 07:26:54;;;;;;;16.80;10.90;;;-0.50;99.90;;;;;;470404;253;27498;-75
2022/03/01 07:28:55;;;;;;;16.98;10.50;;;-0.50;99.90;;;;;;470380;253;27439;-75
2022/03/01 07:30:56;;;;;;;14.10;9.27;;;-0.50;99.90;;;;;;470420;253;27447;-74
2022/03/01 07:32:58;;;;;;;18.67;11.02;;;-0.40;99.90;;;;;;470422;252;27462;-75
2022/03/01 07:34:58;;;;;;;18.08;11.48;;;-0.40;99.90;;;;;;470423;249;27895;-75
2022/03/01 07:37:00;;;;;;;15.73;10.70;;;-0.30;99.90;;;;;;470423;253;27940;-74
2022/03/01 07:39:01;;;;;;;27.10;11.98;;;-0.30;99.90;;;;;;470404;253;27467;-75
2022/03/01 07:41:02;;;;;;;17.30;11.05;;;-0.20;99.90;;;;;;470405;253;27431;-75
2022/03/01 07:43:03;;;;;;;17.62;11.27;;;-0.20;99.90;;;;;;470404;253;27465;-75
2022/03/01 07:45:05;;;;;;;19.02;12.32;;;-0.20;99.90;;;;;;470376;253;27426;-75
2022/03/01 07:47:06;;;;;;;20.02;11.15;;;-0.10;99.90;;;;;;470390;253;27458;-75
2022/03/01 07:49:08;;;;;;;17.00;10.32;;;-0.10;99.90;;;;;;470387;253;28819;-74
2022/03/01 07:51:09;;;;;;;23.95;11.23;;;0.00;99.90;;;;;;470407;253;27435;-74
2022/03/01 07:53:10;;;;;;;17.30;10.55;;;0.00;99.90;;;;;;470399;253;27490;-74
2022/03/01 07:55:11;;;;;;;19.17;10.90;;;0.10;99.90;;;;;;470367;253;27573;-75
2022/03/01 07:57:12;;;;;;;18.17;10.93;;;0.10;99.90;;;;;;470384;253;27478;-75
2022/03/01 07:59:14;;;;;;;23.83;11.77;;;0.20;99.90;;;;;;470333;253;27463;-77
2022/03/01 08:01:15;;;;;;;19.98;11.38;;;0.20;99.90;;;;;;470397;249;27437;-75
2022/03/01 08:03:16;;;;;;;14.70;10.50;;;0.30;99.90;;;;;;470413;253;28007;-75
2022/03/01 08:05:17;;;;;;;18.50;11.45;;;0.40;99.90;;;;;;470382;253;27980;-75
2022/03/01 08:07:19;;;;;;;17.35;10.43;;;0.40;99.90;;;;;;470403;253;27455;-75
2022/03/01 08:09:20;;;;;;;15.75;9.82;;;0.30;99.90;;;;;;470403;253;27450;-75
2022/03/01 08:11:21;;;;;;;17.92;10.52;;;0.40;99.90;;;;;;470416;252;27467;-76
2022/03/01 08:13:23;;;;;;;14.45;9.20;;;0.40;99.90;;;;;;470412;253;27489;-74
2022/03/01 08:15:26;;;;;;;14.73;9.82;;;0.40;99.90;;;;;;470342;252;27585;-75
2022/03/01 08:17:25;;;;;;;13.65;9.82;;;0.40;99.90;;;;;;470297;252;27487;-75
2022/03/01 08:19:26;;;;;;;13.60;9.20;;;0.50;99.90;;;;;;470392;253;28070;-75
2022/03/01 08:21:27;;;;;;;15.55;10.10;;;0.60;99.90;;;;;;470409;252;27976;-75
2022/03/01 08:23:29;;;;;;;16.70;10.05;;;0.70;99.90;;;;;;470385;253;27989;-75
2022/03/01 08:25:30;;;;;;;15.15;10.52;;;0.80;99.90;;;;;;470395;253;27434;-75
2022/03/01 08:27:31;;;;;;;17.15;10.50;;;1.00;99.90;;;;;;470407;253;27493;-75
2022/03/01 08:29:32;;;;;;;16.27;10.93;;;1.10;99.90;;;;;;470384;253;27712;-75
2022/03/01 08:31:35;;;;;;;19.85;11.07;;;1.20;99.90;;;;;;470402;253;27438;-75
2022/03/01 08:33:35;;;;;;;15.80;11.27;;;1.20;99.90;;;;;;470344;253;27469;-75
2022/03/01 08:35:36;;;;;;;16.30;10.98;;;1.30;99.90;;;;;;470388;253;27977;-75
2022/03/01 08:37:37;;;;;;;18.62;11.23;;;1.40;99.90;;;;;;470373;253;28073;-75
2022/03/01 08:39:39;;;;;;;19.92;10.50;;;1.40;99.90;;;;;;470390;253;27479;-76
2022/03/01 08:41:40;;;;;;;13.68;9.40;;;1.40;99.90;;;;;;470050;253;27465;-75
2022/03/01 08:43:41;;;;;;;16.73;10.30;;;1.50;99.90;;;;;;469725;252;27490;-75
2022/03/01 08:45:42;;;;;;;18.12;11.00;;;1.60;99.90;;;;;;470024;253;27533;-75
2022/03/01 08:47:44;;;;;;;15.98;10.52;;;1.70;99.90;;;;;;470246;253;27462;-75
2022/03/01 08:49:45;;;;;;;15.73;10.57;;;1.80;99.90;;;;;;470399;253;27559;-76
2022/03/01 08:51:46;;;;;;;19.00;10.68;;;1.90;99.90;;;;;;470384;249;27902;-79
2022/03/01 08:53:47;;;;;;;15.02;11.23;;;1.90;99.90;;;;;;470416;253;27945;-75
2022/03/01 08:55:49;;;;;;;16.45;10.98;;;2.00;99.90;;;;;;470416;253;27426;-75
2022/03/01 08:57:50;;;;;;;18.02;11.70;;;2.00;99.90;;;;;;470376;249;27563;-75
2022/03/01 08:59:51;;;;;;;19.75;11.02;;;2.00;99.90;;;;;;470448;253;27471;-76
2022/03/01 09:01:52;;;;;;;19.52;11.98;;;2.20;99.90;;;;;;470443;249;27500;-75
2022/03/01 09:03:54;;;;;;;19.00;10.55;;;2.30;99.90;;;;;;470432;253;27465;-75
2022/03/01 09:05:55;;;;;;;16.58;10.15;;;2.40;99.90;;;;;;470423;253;27426;-75
2022/03/01 09:07:56;;;;;;;17.95;10.93;;;2.50;99.90;;;;;;470413;253;27974;-75
2022/03/01 09:09:57;;;;;;;15.38;9.80;;;2.50;99.90;;;;;;470427;253;27966;-76
2022/03/01 09:11:59;;;;;;;16.92;10.32;;;2.40;99.90;;;;;;470413;253;27427;-75
2022/03/01 09:14:00;;;;;;;11.50;9.77;;;2.40;99.90;;;;;;470399;253;27463;-76
2022/03/01 09:16:01;;;;;;;11.93;9.98;;;2.50;99.90;;;;;;470405;252;27459;-75
2022/03/01 09:18:03;;;;;;;14.65;9.82;;;2.50;99.90;;;;;;470382;253;27534;-76
2022/03/01 09:20:04;;;;;;;13.30;9.15;;;2.50;99.90;;;;;;470431;252;27838;-76
2022/03/01 09:22:05;;;;;;;16.55;10.60;;;2.50;99.90;;;;;;470406;253;27451;-75
2022/03/01 09:24:06;;;;;;;14.70;9.57;;;2.50;99.90;;;;;;470399;253;27470;-75
2022/03/01 09:26:08;;;;;;;14.23;9.82;;;2.60;99.90;;;;;;470383;252;27894;-76
2022/03/01 09:28:09;;;;;;;15.85;10.18;;;2.60;99.90;;;;;;470378;252;29029;-75
2022/03/01 09:30:10;;;;;;;16.27;10.15;;;2.70;99.90;;;;;;470405;253;27463;-76
2022/03/01 09:32:11;;;;;;;15.90;10.18;;;2.60;99.90;;;;;;470407;253;27489;-76
2022/03/01 09:34:13;;;;;;;11.15;9.30;;;2.70;99.90;;;;;;470413;253;27462;-76
2022/03/01 09:36:14;;;;;;;18.67;11.32;;;2.80;99.90;;;;;;470389;252;27498;-75
2022/03/01 09:38:15;;;;;;;17.58;10.88;;;2.80;99.90;;;;;;470377;253;27471;-75
2022/03/01 09:40:16;;;;;;;15.00;10.55;;;2.80;99.90;;;;;;470415;253;27471;-75
2022/03/01 09:42:18;;;;;;;13.77;9.20;;;2.90;99.90;;;;;;470397;253;27899;-75
2022/03/01 09:44:19;;;;;;;12.70;8.65;;;2.90;99.90;;;;;;470404;253;28106;-75
2022/03/01 09:46:20;;;;;;;17.58;10.55;;;2.80;99.90;;;;;;470413;252;28968;-75
2022/03/01 09:48:21;;;;;;;15.40;9.88;;;2.80;99.90;;;;;;470378;253;27458;-75
2022/03/01 09:50:27;;;;;;;15.73;10.07;;;2.80;99.90;;;;;;470421;252;27474;-75
2022/03/01 09:52:24;;;;;;;13.90;9.00;;;2.90;99.90;;;;;;470076;253;27491;-75
2022/03/01 09:54:25;;;;;;;16.20;9.50;;;2.90;99.90;;;;;;470425;252;27485;-75
2022/03/01 09:56:26;;;;;;;15.25;10.15;;;3.00;99.90;;;;;;470391;252;27527;-75
2022/03/01 09:58:28;;;;;;;13.32;9.55;;;3.10;99.90;;;;;;470402;253;27572;-75
2022/03/01 10:00:29;;;;;;;14.68;9.20;;;3.10;99.90;;;;;;470417;252;27950;-76
2022/03/01 10:02:30;;;;;;;14.30;8.90;;;3.20;99.90;;;;;;470413;252;28987;-75
2022/03/01 10:04:31;;;;;;;13.88;9.05;;;3.30;99.90;;;;;;470415;252;27961;-76
2022/03/01 10:06:34;;;;;;;13.00;9.02;;;3.30;99.90;;;;;;470347;253;27541;-75
2022/03/01 10:08:34;;;;;;;11.95;7.97;;;3.40;99.90;;;;;;470312;252;27518;-75
2022/03/01 10:10:35;;;;;;;17.08;9.73;;;3.40;99.90;;;;;;470413;253;27494;-75
2022/03/01 10:12:36;;;;;;;12.32;8.82;;;3.50;99.90;;;;;;470417;252;27431;-74
2022/03/01 10:14:40;;;;;;;14.50;8.70;;;3.50;99.90;;;;;;470415;253;27474;-75
2022/03/01 10:16:39;;;;;;;14.52;8.57;;;3.50;99.90;;;;;;470296;253;27488;-75
2022/03/01 10:18:41;;;;;;;15.18;9.65;;;3.60;99.90;;;;;;470417;252;27462;-75
2022/03/01 10:20:44;;;;;;;16.37;9.43;;;3.70;99.90;;;;;;470445;252;27928;-75
2022/03/01 10:22:43;;;;;;;16.90;9.90;;;3.80;99.90;;;;;;470290;253;29085;-75
2022/03/01 10:24:44;;;;;;;14.57;8.80;;;4.00;99.90;;;;;;470335;253;27553;-75
2022/03/01 10:26:45;;;;;;;12.65;8.60;;;3.90;99.90;;;;;;470377;249;27423;-75
2022/03/01 10:28:46;;;;;;;13.07;8.48;;;3.90;99.90;;;;;;470409;252;27550;-75